sensor_id;sensor_type;location;lat;lon;timestamp;temperature;humidity
7366;DHT22;3723;52.220;8.792;2023-12-14T00:00:13;4.60;99.90
7366;DHT22;3723;52.220;8.792;2023-12-14T00:02:40;4.60;99.90
7366;DHT22;3723;52.220;8.792;2023-12-14T00:05:08;4.50;99.90
7366;DHT22;3723;52.220;8.792;2023-12-14T00:07:34;4.50;99.90
7366;DHT22;3723;52.220;8.792;2023-12-14T00:10:03;4.50;99.90
7366;DHT22;3723;52.220;8.792;2023-12-14T00:12:31;4.50;99.90
7366;DHT22;3723;52.220;8.792;2023-12-14T00:14:58;4.40;99.90
7366;DHT22;3723;52.220;8.792;2023-12-14T00:17:25;4.40;99.90
7366;DHT22;3723;52.220;8.792;2023-12-14T00:19:52;4.40;99.90
7366;DHT22;3723;52.220;8.792;2023-12-14T00:22:18;4.40;99.90
7366;DHT22;3723;52.220;8.792;2023-12-14T00:24:45;4.40;99.90
7366;DHT22;3723;52.220;8.792;2023-12-14T00:27:13;4.40;99.90
7366;DHT22;3723;52.220;8.792;2023-12-14T00:29:40;4.40;99.90
7366;DHT22;3723;52.220;8.792;2023-12-14T00:32:07;4.40;99.90
7366;DHT22;3723;52.220;8.792;2023-12-14T00:34:34;4.40;99.90
7366;DHT22;3723;52.220;8.792;2023-12-14T00:37:02;4.40;99.90
7366;DHT22;3723;52.220;8.792;2023-12-14T00:39:29;4.30;99.90
7366;DHT22;3723;52.220;8.792;2023-12-14T00:41:55;4.30;99.90
7366;DHT22;3723;52.220;8.792;2023-12-14T00:44:23;4.20;99.90
7366;DHT22;3723;52.220;8.792;2023-12-14T00:46:50;4.20;99.90
7366;DHT22;3723;52.220;8.792;2023-12-14T00:49:16;4.20;99.90
7366;DHT22;3723;52.220;8.792;2023-12-14T00:51:44;4.20;99.90
7366;DHT22;3723;52.220;8.792;2023-12-14T00:54:11;4.20;99.90
7366;DHT22;3723;52.220;8.792;2023-12-14T00:56:38;4.20;99.90
7366;DHT22;3723;52.220;8.792;2023-12-14T00:59:07;4.20;99.90
7366;DHT22;3723;52.220;8.792;2023-12-14T01:01:35;4.20;99.90
7366;DHT22;3723;52.220;8.792;2023-12-14T01:04:02;4.20;99.90
7366;DHT22;3723;52.220;8.792;2023-12-14T01:06:30;4.20;99.90
7366;DHT22;3723;52.220;8.792;2023-12-14T01:08:57;4.20;99.90
7366;DHT22;3723;52.220;8.792;2023-12-14T01:11:23;4.10;99.90
7366;DHT22;3723;52.220;8.792;2023-12-14T01:13:50;4.10;99.90
7366;DHT22;3723;52.220;8.792;2023-12-14T01:16:17;4.00;99.90
7366;DHT22;3723;52.220;8.792;2023-12-14T01:18:45;4.00;99.90
7366;DHT22;3723;52.220;8.792;2023-12-14T01:21:12;4.00;99.90
7366;DHT22;3723;52.220;8.792;2023-12-14T01:23:39;4.00;99.90
7366;DHT22;3723;52.220;8.792;2023-12-14T01:26:06;3.90;99.90
7366;DHT22;3723;52.220;8.792;2023-12-14T01:28:33;3.90;99.90
7366;DHT22;3723;52.220;8.792;2023-12-14T01:31:00;3.90;99.90
7366;DHT22;3723;52.220;8.792;2023-12-14T01:33:27;3.90;99.90
7366;DHT22;3723;52.220;8.792;2023-12-14T01:35:55;4.00;99.90
7366;DHT22;3723;52.220;8.792;2023-12-14T01:38:23;3.90;99.90
7366;DHT22;3723;52.220;8.792;2023-12-14T01:40:50;3.90;99.90
7366;DHT22;3723;52.220;8.792;2023-12-14T01:43:17;4.00;99.90
7366;DHT22;3723;52.220;8.792;2023-12-14T01:45:44;3.90;99.90
7366;DHT22;3723;52.220;8.792;2023-12-14T01:48:11;3.90;99.90
7366;DHT22;3723;52.220;8.792;2023-12-14T01:50:38;3.90;99.90
7366;DHT22;3723;52.220;8.792;2023-12-14T01:53:06;3.90;99.90
7366;DHT22;3723;52.220;8.792;2023-12-14T01:55:33;3.90;99.90
7366;DHT22;3723;52.220;8.792;2023-12-14T01:58:00;3.90;99.90
7366;DHT22;3723;52.220;8.792;2023-12-14T02:00:30;3.90;99.90
7366;DHT22;3723;52.220;8.792;2023-12-14T02:03:01;3.90;99.90
7366;DHT22;3723;52.220;8.792;2023-12-14T02:05:28;3.80;99.90
7366;DHT22;3723;52.220;8.792;2023-12-14T02:07:55;3.80;99.90
7366;DHT22;3723;52.220;8.792;2023-12-14T02:10:23;3.80;99.90
7366;DHT22;3723;52.220;8.792;2023-12-14T02:12:50;3.70;99.90
7366;DHT22;3723;52.220;8.792;2023-12-14T02:15:17;3.70;99.90
7366;DHT22;3723;52.220;8.792;2023-12-14T02:17:44;3.70;99.90
7366;DHT22;3723;52.220;8.792;2023-12-14T02:20:11;3.70;99.90
7366;DHT22;3723;52.220;8.792;2023-12-14T02:22:49;3.70;99.90
7366;DHT22;3723;52.220;8.792;2023-12-14T02:25:16;3.60;99.90
7366;DHT22;3723;52.220;8.792;2023-12-14T02:27:43;3.70;99.90
7366;DHT22;3723;52.220;8.792;2023-12-14T02:30:11;3.70;99.90
7366;DHT22;3723;52.220;8.792;2023-12-14T02:32:38;3.60;99.90
7366;DHT22;3723;52.220;8.792;2023-12-14T02:35:06;3.60;99.90
7366;DHT22;3723;52.220;8.792;2023-12-14T02:37:33;3.60;99.90
7366;DHT22;3723;52.220;8.792;2023-12-14T02:40:05;3.60;99.90
7366;DHT22;3723;52.220;8.792;2023-12-14T02:42:32;3.60;99.90
7366;DHT22;3723;52.220;8.792;2023-12-14T02:44:59;3.60;99.90
7366;DHT22;3723;52.220;8.792;2023-12-14T02:47:27;3.50;99.90
7366;DHT22;3723;52.220;8.792;2023-12-14T02:49:54;3.50;99.90
7366;DHT22;3723;52.220;8.792;2023-12-14T02:52:21;3.60;99.90
7366;DHT22;3723;52.220;8.792;2023-12-14T02:54:48;3.50;99.90
7366;DHT22;3723;52.220;8.792;2023-12-14T02:57:16;3.50;99.90
7366;DHT22;3723;52.220;8.792;2023-12-14T02:59:43;3.60;99.90
7366;DHT22;3723;52.220;8.792;2023-12-14T03:02:10;3.50;99.90
7366;DHT22;3723;52.220;8.792;2023-12-14T03:04:38;3.40;99.90
7366;DHT22;3723;52.220;8.792;2023-12-14T03:07:05;3.50;99.90
7366;DHT22;3723;52.220;8.792;2023-12-14T03:09:32;3.40;99.90
7366;DHT22;3723;52.220;8.792;2023-12-14T03:12:00;3.40;99.90
7366;DHT22;3723;52.220;8.792;2023-12-14T03:14:32;3.50;99.90
7366;DHT22;3723;52.220;8.792;2023-12-14T03:16:59;3.40;99.90
7366;DHT22;3723;52.220;8.792;2023-12-14T03:19:26;3.40;99.90
7366;DHT22;3723;52.220;8.792;2023-12-14T03:21:53;3.40;99.90
7366;DHT22;3723;52.220;8.792;2023-12-14T03:24:20;3.40;99.90
7366;DHT22;3723;52.220;8.792;2023-12-14T03:26:47;3.40;99.90
7366;DHT22;3723;52.220;8.792;2023-12-14T03:29:13;3.40;99.90
7366;DHT22;3723;52.220;8.792;2023-12-14T03:31:42;3.50;99.90
7366;DHT22;3723;52.220;8.792;2023-12-14T03:34:09;3.40;99.90
7366;DHT22;3723;52.220;8.792;2023-12-14T03:36:35;3.50;99.90
7366;DHT22;3723;52.220;8.792;2023-12-14T03:39:02;3.40;99.90
7366;DHT22;3723;52.220;8.792;2023-12-14T03:41:29;3.40;99.90
7366;DHT22;3723;52.220;8.792;2023-12-14T03:43:56;3.40;99.90
7366;DHT22;3723;52.220;8.792;2023-12-14T03:46:23;3.40;99.90
7366;DHT22;3723;52.220;8.792;2023-12-14T03:48:51;3.40;99.90
7366;DHT22;3723;52.220;8.792;2023-12-14T03:51:19;3.40;99.90
7366;DHT22;3723;52.220;8.792;2023-12-14T03:53:46;3.40;99.90
7366;DHT22;3723;52.220;8.792;2023-12-14T03:56:13;3.40;99.90
7366;DHT22;3723;52.220;8.792;2023-12-14T03:58:40;3.50;99.90
7366;DHT22;3723;52.220;8.792;2023-12-14T04:01:07;3.40;99.90
7366;DHT22;3723;52.220;8.792;2023-12-14T04:03:33;3.40;99.90
7366;DHT22;3723;52.220;8.792;2023-12-14T04:06:02;3.40;99.90
7366;DHT22;3723;52.220;8.792;2023-12-14T04:08:29;3.40;99.90
7366;DHT22;3723;52.220;8.792;2023-12-14T04:10:56;3.40;99.90
7366;DHT22;3723;52.220;8.792;2023-12-14T04:13:23;3.30;99.90
7366;DHT22;3723;52.220;8.792;2023-12-14T04:15:50;3.30;99.90
7366;DHT22;3723;52.220;8.792;2023-12-14T04:18:17;3.30;99.90
7366;DHT22;3723;52.220;8.792;2023-12-14T04:20:43;3.30;99.90
7366;DHT22;3723;52.220;8.792;2023-12-14T04:23:13;3.30;99.90
7366;DHT22;3723;52.220;8.792;2023-12-14T04:25:39;3.30;99.90
7366;DHT22;3723;52.220;8.792;2023-12-14T04:28:06;3.20;99.90
7366;DHT22;3723;52.220;8.792;2023-12-14T04:30:33;3.30;99.90
7366;DHT22;3723;52.220;8.792;2023-12-14T04:33:00;3.30;99.90
7366;DHT22;3723;52.220;8.792;2023-12-14T04:35:27;3.20;99.90
7366;DHT22;3723;52.220;8.792;2023-12-14T04:37:54;3.20;99.90
7366;DHT22;3723;52.220;8.792;2023-12-14T04:40:22;3.20;99.90
7366;DHT22;3723;52.220;8.792;2023-12-14T04:42:49;3.20;99.90
7366;DHT22;3723;52.220;8.792;2023-12-14T04:45:17;3.20;99.90
7366;DHT22;3723;52.220;8.792;2023-12-14T04:47:44;3.20;99.90
7366;DHT22;3723;52.220;8.792;2023-12-14T04:50:11;3.20;99.90
7366;DHT22;3723;52.220;8.792;2023-12-14T04:52:38;3.10;99.90
7366;DHT22;3723;52.220;8.792;2023-12-14T04:55:06;3.10;99.90
7366;DHT22;3723;52.220;8.792;2023-12-14T04:57:35;3.10;99.90
7366;DHT22;3723;52.220;8.792;2023-12-14T05:00:02;3.10;99.90
7366;DHT22;3723;52.220;8.792;2023-12-14T05:02:31;3.10;99.90
7366;DHT22;3723;52.220;8.792;2023-12-14T05:04:58;3.10;99.90
7366;DHT22;3723;52.220;8.792;2023-12-14T05:07:25;3.10;99.90
7366;DHT22;3723;52.220;8.792;2023-12-14T05:09:52;3.00;99.90
7366;DHT22;3723;52.220;8.792;2023-12-14T05:12:19;3.10;99.90
7366;DHT22;3723;52.220;8.792;2023-12-14T05:14:47;3.00;99.90
7366;DHT22;3723;52.220;8.792;2023-12-14T05:17:14;3.00;99.90
7366;DHT22;3723;52.220;8.792;2023-12-14T05:19:41;3.00;99.90
7366;DHT22;3723;52.220;8.792;2023-12-14T05:22:08;3.00;99.90
7366;DHT22;3723;52.220;8.792;2023-12-14T05:24:35;3.00;99.90
7366;DHT22;3723;52.220;8.792;2023-12-14T05:27:02;3.00;99.90
7366;DHT22;3723;52.220;8.792;2023-12-14T05:29:29;3.00;99.90
7366;DHT22;3723;52.220;8.792;2023-12-14T05:31:59;3.00;99.90
7366;DHT22;3723;52.220;8.792;2023-12-14T05:34:26;3.00;99.90
7366;DHT22;3723;52.220;8.792;2023-12-14T05:36:53;3.00;99.90
7366;DHT22;3723;52.220;8.792;2023-12-14T05:39:20;3.00;99.90
7366;DHT22;3723;52.220;8.792;2023-12-14T05:41:48;2.90;99.90
7366;DHT22;3723;52.220;8.792;2023-12-14T05:44:14;2.90;99.90
7366;DHT22;3723;52.220;8.792;2023-12-14T05:46:41;2.90;99.90
7366;DHT22;3723;52.220;8.792;2023-12-14T05:49:10;3.00;99.90
7366;DHT22;3723;52.220;8.792;2023-12-14T05:51:37;2.90;99.90
7366;DHT22;3723;52.220;8.792;2023-12-14T05:54:05;2.90;99.90
7366;DHT22;3723;52.220;8.792;2023-12-14T05:56:32;2.90;99.90
7366;DHT22;3723;52.220;8.792;2023-12-14T05:58:59;2.90;99.90
7366;DHT22;3723;52.220;8.792;2023-12-14T06:01:26;2.90;99.90
7366;DHT22;3723;52.220;8.792;2023-12-14T06:03:53;3.00;99.90
7366;DHT22;3723;52.220;8.792;2023-12-14T06:06:21;3.00;99.90
7366;DHT22;3723;52.220;8.792;2023-12-14T06:08:49;3.00;99.90
7366;DHT22;3723;52.220;8.792;2023-12-14T06:11:16;2.90;99.90
7366;DHT22;3723;52.220;8.792;2023-12-14T06:13:42;3.00;99.90
7366;DHT22;3723;52.220;8.792;2023-12-14T06:16:09;3.00;99.90
7366;DHT22;3723;52.220;8.792;2023-12-14T06:18:39;3.00;99.90
7366;DHT22;3723;52.220;8.792;2023-12-14T06:21:07;3.00;99.90
7366;DHT22;3723;52.220;8.792;2023-12-14T06:23:35;3.00;99.90
7366;DHT22;3723;52.220;8.792;2023-12-14T06:26:03;3.10;99.90
7366;DHT22;3723;52.220;8.792;2023-12-14T06:28:31;3.00;99.90
7366;DHT22;3723;52.220;8.792;2023-12-14T06:30:57;3.00;99.90
7366;DHT22;3723;52.220;8.792;2023-12-14T06:33:26;3.10;99.90
7366;DHT22;3723;52.220;8.792;2023-12-14T06:35:53;3.00;99.90
7366;DHT22;3723;52.220;8.792;2023-12-14T06:38:20;3.00;99.90
7366;DHT22;3723;52.220;8.792;2023-12-14T06:40:49;3.10;99.90
7366;DHT22;3723;52.220;8.792;2023-12-14T06:43:16;3.00;99.90
7366;DHT22;3723;52.220;8.792;2023-12-14T06:45:42;3.10;99.90
7366;DHT22;3723;52.220;8.792;2023-12-14T06:48:09;3.00;99.90
7366;DHT22;3723;52.220;8.792;2023-12-14T06:50:37;3.00;99.90
7366;DHT22;3723;52.220;8.792;2023-12-14T06:53:04;3.00;99.90
7366;DHT22;3723;52.220;8.792;2023-12-14T06:55:31;3.10;99.90
7366;DHT22;3723;52.220;8.792;2023-12-14T06:57:59;3.00;99.90
7366;DHT22;3723;52.220;8.792;2023-12-14T07:00:26;3.10;99.90
7366;DHT22;3723;52.220;8.792;2023-12-14T07:02:56;3.10;99.90
7366;DHT22;3723;52.220;8.792;2023-12-14T07:05:23;3.10;99.90
7366;DHT22;3723;52.220;8.792;2023-12-14T07:07:49;3.10;99.90
7366;DHT22;3723;52.220;8.792;2023-12-14T07:10:16;3.10;99.90
7366;DHT22;3723;52.220;8.792;2023-12-14T07:12:43;3.00;99.90
7366;DHT22;3723;52.220;8.792;2023-12-14T07:15:11;3.00;99.90
7366;DHT22;3723;52.220;8.792;2023-12-14T07:17:38;3.00;99.90
7366;DHT22;3723;52.220;8.792;2023-12-14T07:20:06;3.00;99.90
7366;DHT22;3723;52.220;8.792;2023-12-14T07:22:34;3.00;99.90
7366;DHT22;3723;52.220;8.792;2023-12-14T07:25:00;3.00;99.90
7366;DHT22;3723;52.220;8.792;2023-12-14T07:27:27;3.00;99.90
7366;DHT22;3723;52.220;8.792;2023-12-14T07:29:54;3.00;99.90
7366;DHT22;3723;52.220;8.792;2023-12-14T07:32:22;3.00;99.90
7366;DHT22;3723;52.220;8.792;2023-12-14T07:34:49;3.00;99.90
7366;DHT22;3723;52.220;8.792;2023-12-14T07:37:16;3.10;99.90
7366;DHT22;3723;52.220;8.792;2023-12-14T07:39:42;2.90;99.90
7366;DHT22;3723;52.220;8.792;2023-12-14T07:42:09;3.00;99.90
7366;DHT22;3723;52.220;8.792;2023-12-14T07:44:36;3.00;99.90
7366;DHT22;3723;52.220;8.792;2023-12-14T07:47:06;3.00;99.90
7366;DHT22;3723;52.220;8.792;2023-12-14T07:49:35;3.10;99.90
7366;DHT22;3723;52.220;8.792;2023-12-14T07:52:01;3.10;99.90
7366;DHT22;3723;52.220;8.792;2023-12-14T07:54:29;3.10;99.90
7366;DHT22;3723;52.220;8.792;2023-12-14T07:56:55;3.10;99.90
7366;DHT22;3723;52.220;8.792;2023-12-14T07:59:22;3.10;99.90
7366;DHT22;3723;52.220;8.792;2023-12-14T08:01:49;3.10;99.90
7366;DHT22;3723;52.220;8.792;2023-12-14T08:04:16;3.10;99.90
7366;DHT22;3723;52.220;8.792;2023-12-14T08:06:51;3.10;99.90
7366;DHT22;3723;52.220;8.792;2023-12-14T08:09:17;3.10;99.90
7366;DHT22;3723;52.220;8.792;2023-12-14T08:11:44;3.10;99.90
7366;DHT22;3723;52.220;8.792;2023-12-14T08:14:11;3.10;99.90
7366;DHT22;3723;52.220;8.792;2023-12-14T08:16:38;3.20;99.90
7366;DHT22;3723;52.220;8.792;2023-12-14T08:19:05;3.20;99.90
7366;DHT22;3723;52.220;8.792;2023-12-14T08:21:32;3.20;91.80
7366;DHT22;3723;52.220;8.792;2023-12-14T08:24:00;3.20;64.70
7366;DHT22;3723;52.220;8.792;2023-12-14T08:26:28;3.20;41.60
7366;DHT22;3723;52.220;8.792;2023-12-14T08:28:54;3.30;23.60
7366;DHT22;3723;52.220;8.792;2023-12-14T08:31:23;3.30;5.80
7366;DHT22;3723;52.220;8.792;2023-12-14T08:33:50;3.30;1.00
7366;DHT22;3723;52.220;8.792;2023-12-14T08:36:18;3.30;1.00
7366;DHT22;3723;52.220;8.792;2023-12-14T08:38:44;3.30;1.00
7366;DHT22;3723;52.220;8.792;2023-12-14T08:41:13;3.30;1.00
7366;DHT22;3723;52.220;8.792;2023-12-14T08:43:40;3.30;1.00
7366;DHT22;3723;52.220;8.792;2023-12-14T08:46:07;3.30;1.00
7366;DHT22;3723;52.220;8.792;2023-12-14T08:48:35;3.30;1.00
7366;DHT22;3723;52.220;8.792;2023-12-14T08:51:03;3.30;1.00
7366;DHT22;3723;52.220;8.792;2023-12-14T08:53:30;3.40;1.00
7366;DHT22;3723;52.220;8.792;2023-12-14T08:56:00;3.40;1.00
7366;DHT22;3723;52.220;8.792;2023-12-14T08:58:29;3.40;1.00
7366;DHT22;3723;52.220;8.792;2023-12-14T09:00:56;3.40;1.00
7366;DHT22;3723;52.220;8.792;2023-12-14T09:03:23;3.40;1.00
7366;DHT22;3723;52.220;8.792;2023-12-14T09:05:50;3.40;1.00
7366;DHT22;3723;52.220;8.792;2023-12-14T09:11:38;3.40;1.00
7366;DHT22;3723;52.220;8.792;2023-12-14T09:14:07;3.40;1.00
7366;DHT22;3723;52.220;8.792;2023-12-14T09:16:34;3.40;1.00
7366;DHT22;3723;52.220;8.792;2023-12-14T09:19:01;3.50;1.00
7366;DHT22;3723;52.220;8.792;2023-12-14T09:21:28;3.50;1.00
7366;DHT22;3723;52.220;8.792;2023-12-14T09:23:59;3.50;99.90
7366;DHT22;3723;52.220;8.792;2023-12-14T09:26:27;3.60;99.90
7366;DHT22;3723;52.220;8.792;2023-12-14T09:28:53;3.60;99.90
7366;DHT22;3723;52.220;8.792;2023-12-14T09:31:21;3.60;99.90
7366;DHT22;3723;52.220;8.792;2023-12-14T09:33:53;3.60;99.90
7366;DHT22;3723;52.220;8.792;2023-12-14T09:36:20;3.60;99.90
7366;DHT22;3723;52.220;8.792;2023-12-14T09:38:47;3.60;99.90
7366;DHT22;3723;52.220;8.792;2023-12-14T09:41:14;3.60;99.90
7366;DHT22;3723;52.220;8.792;2023-12-14T09:43:41;3.70;99.90
7366;DHT22;3723;52.220;8.792;2023-12-14T09:46:09;3.70;99.90
7366;DHT22;3723;52.220;8.792;2023-12-14T09:48:39;3.70;99.90
7366;DHT22;3723;52.220;8.792;2023-12-14T09:51:06;3.80;99.90
7366;DHT22;3723;52.220;8.792;2023-12-14T09:53:33;3.80;99.90
7366;DHT22;3723;52.220;8.792;2023-12-14T09:56:00;3.80;99.90
7366;DHT22;3723;52.220;8.792;2023-12-14T09:58:27;3.80;99.90
7366;DHT22;3723;52.220;8.792;2023-12-14T10:00:54;3.80;99.90
7366;DHT22;3723;52.220;8.792;2023-12-14T10:03:24;3.90;99.90
7366;DHT22;3723;52.220;8.792;2023-12-14T10:05:55;3.90;99.90
7366;DHT22;3723;52.220;8.792;2023-12-14T10:08:23;3.90;99.90
7366;DHT22;3723;52.220;8.792;2023-12-14T10:10:52;3.90;99.90
7366;DHT22;3723;52.220;8.792;2023-12-14T10:13:20;3.90;99.90
7366;DHT22;3723;52.220;8.792;2023-12-14T10:15:48;4.00;99.90
7366;DHT22;3723;52.220;8.792;2023-12-14T10:18:22;3.90;99.90
7366;DHT22;3723;52.220;8.792;2023-12-14T10:20:49;3.90;99.90
7366;DHT22;3723;52.220;8.792;2023-12-14T10:23:18;4.00;99.90
7366;DHT22;3723;52.220;8.792;2023-12-14T10:25:45;4.00;99.90
7366;DHT22;3723;52.220;8.792;2023-12-14T10:28:12;4.10;99.90
7366;DHT22;3723;52.220;8.792;2023-12-14T10:30:40;4.20;99.90
7366;DHT22;3723;52.220;8.792;2023-12-14T10:33:07;4.20;99.90
7366;DHT22;3723;52.220;8.792;2023-12-14T10:35:34;4.20;99.90
7366;DHT22;3723;52.220;8.792;2023-12-14T10:38:05;4.30;74.10
7366;DHT22;3723;52.220;8.792;2023-12-14T10:40:34;4.20;42.20
7366;DHT22;3723;52.220;8.792;2023-12-14T10:43:03;4.30;28.80
7366;DHT22;3723;52.220;8.792;2023-12-14T10:45:32;4.30;14.90
7366;DHT22;3723;52.220;8.792;2023-12-14T10:48:00;4.30;1.00
7366;DHT22;3723;52.220;8.792;2023-12-14T10:50:29;4.30;1.00
7366;DHT22;3723;52.220;8.792;2023-12-14T10:52:57;4.30;1.00
7366;DHT22;3723;52.220;8.792;2023-12-14T10:55:26;4.30;1.00
7366;DHT22;3723;52.220;8.792;2023-12-14T10:57:57;4.40;1.00
7366;DHT22;3723;52.220;8.792;2023-12-14T11:00:24;4.50;1.00
7366;DHT22;3723;52.220;8.792;2023-12-14T11:02:51;4.50;1.00
7366;DHT22;3723;52.220;8.792;2023-12-14T11:05:18;4.60;1.00
7366;DHT22;3723;52.220;8.792;2023-12-14T11:07:53;4.70;1.00
7366;DHT22;3723;52.220;8.792;2023-12-14T11:10:22;4.70;1.00
7366;DHT22;3723;52.220;8.792;2023-12-14T11:13:00;4.90;1.00
7366;DHT22;3723;52.220;8.792;2023-12-14T11:15:29;4.80;1.00
7366;DHT22;3723;52.220;8.792;2023-12-14T11:18:21;4.90;1.00
7366;DHT22;3723;52.220;8.792;2023-12-14T11:20:50;5.00;1.00
7366;DHT22;3723;52.220;8.792;2023-12-14T11:23:26;5.10;1.00
7366;DHT22;3723;52.220;8.792;2023-12-14T11:25:57;5.30;1.00
7366;DHT22;3723;52.220;8.792;2023-12-14T11:28:26;5.40;1.00
7366;DHT22;3723;52.220;8.792;2023-12-14T11:30:54;5.50;1.00
7366;DHT22;3723;52.220;8.792;2023-12-14T11:33:21;5.60;1.00
7366;DHT22;3723;52.220;8.792;2023-12-14T11:35:48;5.70;1.00
7366;DHT22;3723;52.220;8.792;2023-12-14T11:38:16;6.00;1.00
7366;DHT22;3723;52.220;8.792;2023-12-14T11:40:43;6.30;1.00
7366;DHT22;3723;52.220;8.792;2023-12-14T13:02:26;5.70;1.00
7366;DHT22;3723;52.220;8.792;2023-12-14T13:04:53;5.70;1.00
7366;DHT22;3723;52.220;8.792;2023-12-14T13:07:20;5.80;1.00
7366;DHT22;3723;52.220;8.792;2023-12-14T13:09:47;5.80;1.00
7366;DHT22;3723;52.220;8.792;2023-12-14T13:12:15;5.80;1.00
7366;DHT22;3723;52.220;8.792;2023-12-14T13:14:42;5.80;1.00
7366;DHT22;3723;52.220;8.792;2023-12-14T13:17:08;5.80;1.00
7366;DHT22;3723;52.220;8.792;2023-12-14T13:19:35;5.80;1.00
7366;DHT22;3723;52.220;8.792;2023-12-14T13:22:03;5.90;1.00
7366;DHT22;3723;52.220;8.792;2023-12-14T13:24:30;6.00;1.00
7366;DHT22;3723;52.220;8.792;2023-12-14T13:26:58;6.10;1.00
7366;DHT22;3723;52.220;8.792;2023-12-14T13:29:26;6.00;1.00
7366;DHT22;3723;52.220;8.792;2023-12-14T13:31:53;5.90;1.00
7366;DHT22;3723;52.220;8.792;2023-12-14T13:34:20;6.00;1.00
7366;DHT22;3723;52.220;8.792;2023-12-14T13:36:47;6.00;1.00
7366;DHT22;3723;52.220;8.792;2023-12-14T13:39:14;6.00;1.00
7366;DHT22;3723;52.220;8.792;2023-12-14T13:41:40;6.00;1.00
7366;DHT22;3723;52.220;8.792;2023-12-14T13:44:07;5.90;1.00
7366;DHT22;3723;52.220;8.792;2023-12-14T13:46:36;5.90;1.00
7366;DHT22;3723;52.220;8.792;2023-12-14T13:49:02;5.90;1.00
7366;DHT22;3723;52.220;8.792;2023-12-14T13:51:29;5.90;1.00
7366;DHT22;3723;52.220;8.792;2023-12-14T13:53:56;5.90;1.00
7366;DHT22;3723;52.220;8.792;2023-12-14T13:56:23;5.80;1.00
7366;DHT22;3723;52.220;8.792;2023-12-14T13:58:50;5.80;1.00
7366;DHT22;3723;52.220;8.792;2023-12-14T14:01:17;5.80;1.00
7366;DHT22;3723;52.220;8.792;2023-12-14T14:03:47;5.80;1.00
7366;DHT22;3723;52.220;8.792;2023-12-14T14:06:14;5.70;1.00
7366;DHT22;3723;52.220;8.792;2023-12-14T14:08:40;5.70;1.00
7366;DHT22;3723;52.220;8.792;2023-12-14T14:11:06;5.70;1.00
7366;DHT22;3723;52.220;8.792;2023-12-14T14:13:33;5.60;1.00
7366;DHT22;3723;52.220;8.792;2023-12-14T14:16:00;5.60;1.00
7366;DHT22;3723;52.220;8.792;2023-12-14T14:18:27;5.50;1.00
7366;DHT22;3723;52.220;8.792;2023-12-14T14:20:56;5.50;1.00
7366;DHT22;3723;52.220;8.792;2023-12-14T14:23:24;5.40;1.00
7366;DHT22;3723;52.220;8.792;2023-12-14T14:25:51;5.30;1.00
7366;DHT22;3723;52.220;8.792;2023-12-14T14:28:20;5.30;1.00
7366;DHT22;3723;52.220;8.792;2023-12-14T14:30:47;5.20;1.00
7366;DHT22;3723;52.220;8.792;2023-12-14T14:33:15;5.10;1.00
7366;DHT22;3723;52.220;8.792;2023-12-14T14:35:43;5.10;1.00
7366;DHT22;3723;52.220;8.792;2023-12-14T14:38:12;5.00;1.00
7366;DHT22;3723;52.220;8.792;2023-12-14T14:40:39;4.90;1.00
7366;DHT22;3723;52.220;8.792;2023-12-14T14:43:07;4.90;1.00
7366;DHT22;3723;52.220;8.792;2023-12-14T14:45:34;4.90;1.00
7366;DHT22;3723;52.220;8.792;2023-12-14T14:48:00;4.80;1.00
7366;DHT22;3723;52.220;8.792;2023-12-14T14:50:27;4.80;1.00
7366;DHT22;3723;52.220;8.792;2023-12-14T14:52:54;4.80;1.00
7366;DHT22;3723;52.220;8.792;2023-12-14T14:55:23;4.80;1.00
7366;DHT22;3723;52.220;8.792;2023-12-14T14:57:53;4.70;1.00
7366;DHT22;3723;52.220;8.792;2023-12-14T15:00:20;4.70;1.00
7366;DHT22;3723;52.220;8.792;2023-12-14T15:02:47;4.60;1.00
7366;DHT22;3723;52.220;8.792;2023-12-14T15:05:14;4.50;1.00
7366;DHT22;3723;52.220;8.792;2023-12-14T15:07:41;4.50;1.00
7366;DHT22;3723;52.220;8.792;2023-12-14T15:10:08;4.30;1.00
7366;DHT22;3723;52.220;8.792;2023-12-14T15:12:36;4.20;1.00
7366;DHT22;3723;52.220;8.792;2023-12-14T15:15:04;4.10;1.00
7366;DHT22;3723;52.220;8.792;2023-12-14T15:17:31;3.90;1.00
7366;DHT22;3723;52.220;8.792;2023-12-14T15:19:58;3.80;1.00
7366;DHT22;3723;52.220;8.792;2023-12-14T15:22:24;3.80;1.00
7366;DHT22;3723;52.220;8.792;2023-12-14T15:24:51;3.70;1.00
7366;DHT22;3723;52.220;8.792;2023-12-14T15:27:18;3.60;1.00
7366;DHT22;3723;52.220;8.792;2023-12-14T15:29:47;3.50;1.00
7366;DHT22;3723;52.220;8.792;2023-12-14T15:32:15;3.40;1.00
7366;DHT22;3723;52.220;8.792;2023-12-14T15:34:42;3.30;1.00
7366;DHT22;3723;52.220;8.792;2023-12-14T15:37:08;3.30;1.00
7366;DHT22;3723;52.220;8.792;2023-12-14T15:39:35;3.20;1.00
7366;DHT22;3723;52.220;8.792;2023-12-14T15:42:02;3.10;1.00
7366;DHT22;3723;52.220;8.792;2023-12-14T15:44:29;3.00;1.00
7366;DHT22;3723;52.220;8.792;2023-12-14T15:46:57;2.90;1.00
7366;DHT22;3723;52.220;8.792;2023-12-14T15:49:25;2.80;1.00
7366;DHT22;3723;52.220;8.792;2023-12-14T15:51:52;2.80;1.00
7366;DHT22;3723;52.220;8.792;2023-12-14T15:54:19;2.70;1.00
7366;DHT22;3723;52.220;8.792;2023-12-14T15:56:45;2.70;1.00
7366;DHT22;3723;52.220;8.792;2023-12-14T15:59:12;2.70;1.00
7366;DHT22;3723;52.220;8.792;2023-12-14T16:01:39;2.60;1.00
7366;DHT22;3723;52.220;8.792;2023-12-14T16:04:09;2.60;1.00
7366;DHT22;3723;52.220;8.792;2023-12-14T16:06:37;2.50;1.00
7366;DHT22;3723;52.220;8.792;2023-12-14T16:09:04;2.50;1.00
7366;DHT22;3723;52.220;8.792;2023-12-14T16:11:31;2.40;1.00
7366;DHT22;3723;52.220;8.792;2023-12-14T16:13:58;2.30;1.00
7366;DHT22;3723;52.220;8.792;2023-12-14T16:16:25;2.40;1.00
7366;DHT22;3723;52.220;8.792;2023-12-14T16:18:52;2.50;1.00
7366;DHT22;3723;52.220;8.792;2023-12-14T16:21:20;2.60;1.00
7366;DHT22;3723;52.220;8.792;2023-12-14T16:23:47;2.70;1.00
7366;DHT22;3723;52.220;8.792;2023-12-14T16:26:14;2.80;1.00
7366;DHT22;3723;52.220;8.792;2023-12-14T16:28:41;2.80;1.00
7366;DHT22;3723;52.220;8.792;2023-12-14T16:31:09;2.90;1.00
7366;DHT22;3723;52.220;8.792;2023-12-14T16:33:37;2.90;1.00
7366;DHT22;3723;52.220;8.792;2023-12-14T16:36:10;2.90;1.00
7366;DHT22;3723;52.220;8.792;2023-12-14T16:38:38;2.90;1.00
7366;DHT22;3723;52.220;8.792;2023-12-14T16:41:05;2.90;1.00
7366;DHT22;3723;52.220;8.792;2023-12-14T16:43:32;2.80;1.00
7366;DHT22;3723;52.220;8.792;2023-12-14T16:46:00;2.80;1.00
7366;DHT22;3723;52.220;8.792;2023-12-14T16:48:26;2.70;1.00
7366;DHT22;3723;52.220;8.792;2023-12-14T16:50:54;2.70;1.00
7366;DHT22;3723;52.220;8.792;2023-12-14T16:53:20;2.60;1.00
7366;DHT22;3723;52.220;8.792;2023-12-14T16:55:49;2.40;1.00
7366;DHT22;3723;52.220;8.792;2023-12-14T16:58:16;2.30;1.00
7366;DHT22;3723;52.220;8.792;2023-12-14T17:00:44;2.30;1.00
7366;DHT22;3723;52.220;8.792;2023-12-14T17:03:10;2.20;1.00
7366;DHT22;3723;52.220;8.792;2023-12-14T17:05:38;2.10;1.00
7366;DHT22;3723;52.220;8.792;2023-12-14T17:08:05;2.10;1.00
7366;DHT22;3723;52.220;8.792;2023-12-14T17:10:31;2.00;1.00
7366;DHT22;3723;52.220;8.792;2023-12-14T17:12:59;1.90;1.00
7366;DHT22;3723;52.220;8.792;2023-12-14T17:15:28;1.80;1.00
7366;DHT22;3723;52.220;8.792;2023-12-14T17:17:54;1.70;1.00
7366;DHT22;3723;52.220;8.792;2023-12-14T17:20:24;1.70;1.00
7366;DHT22;3723;52.220;8.792;2023-12-14T17:22:51;1.70;1.00
7366;DHT22;3723;52.220;8.792;2023-12-14T17:25:18;1.60;1.00
7366;DHT22;3723;52.220;8.792;2023-12-14T17:27:45;1.60;1.00
7366;DHT22;3723;52.220;8.792;2023-12-14T17:30:14;1.60;1.00
7366;DHT22;3723;52.220;8.792;2023-12-14T17:32:41;1.70;1.00
7366;DHT22;3723;52.220;8.792;2023-12-14T17:35:09;1.70;2.30
7366;DHT22;3723;52.220;8.792;2023-12-14T17:37:36;1.80;39.40
7366;DHT22;3723;52.220;8.792;2023-12-14T17:40:03;1.90;91.90
7366;DHT22;3723;52.220;8.792;2023-12-14T17:42:30;1.90;99.90
7366;DHT22;3723;52.220;8.792;2023-12-14T17:44:57;2.00;99.90
7366;DHT22;3723;52.220;8.792;2023-12-14T17:47:28;2.10;99.90